createdAt,value
2017-01-15T00:00:38.644Z,4.53
2017-01-15T00:01:48.655Z,4.53
2017-01-15T00:02:59.439Z,4.56
2017-01-15T00:04:10.205Z,4.51
2017-01-15T00:05:20.563Z,4.58
2017-01-15T00:06:31.323Z,4.56
2017-01-15T00:07:41.699Z,4.53
2017-01-15T00:08:52.050Z,4.51
2017-01-15T00:10:02.443Z,4.51
2017-01-15T00:11:12.835Z,4.57
2017-01-15T00:12:23.191Z,4.54
2017-01-15T00:13:33.553Z,4.54
2017-01-15T00:14:44.297Z,4.53
2017-01-15T00:15:55.081Z,4.51
2017-01-15T00:17:05.471Z,4.47
2017-01-15T00:18:16.243Z,4.42
2017-01-15T00:19:26.195Z,4.4
2017-01-15T00:20:36.942Z,4.46
2017-01-15T00:21:47.290Z,4.33
2017-01-15T00:22:58.047Z,4.36
2017-01-15T00:24:08.806Z,4.32
2017-01-15T00:25:19.549Z,4.18
2017-01-15T00:26:29.904Z,4.3
2017-01-15T00:27:40.655Z,4.14
2017-01-15T00:28:50.616Z,4.28
2017-01-15T00:30:01.365Z,4.28
2017-01-15T00:31:12.116Z,4.15
2017-01-15T00:32:22.482Z,4.26
2017-01-15T00:33:32.821Z,4.11
2017-01-15T00:34:43.171Z,4.12
2017-01-15T00:35:53.525Z,4.2
2017-01-15T00:37:04.267Z,4.21
2017-01-15T00:38:15.054Z,4.18
2017-01-15T00:39:25.790Z,4.21
2017-01-15T00:40:36.554Z,4.1
2017-01-15T00:41:47.303Z,4.1
2017-01-15T00:42:57.679Z,4.04
2017-01-15T00:44:07.638Z,4.07
2017-01-15T00:45:18.387Z,4.07
2017-01-15T00:46:28.728Z,4
2017-01-15T00:47:39.090Z,3.99
2017-01-15T00:48:49.443Z,3.92
2017-01-15T00:50:00.203Z,3.93
2017-01-15T00:51:10.575Z,4.02
2017-01-15T00:52:20.943Z,3.96
2017-01-15T00:53:31.688Z,3.9
2017-01-15T00:54:42.050Z,3.93
2017-01-15T00:55:52.387Z,3.84
2017-01-15T00:57:03.139Z,3.85
2017-01-15T00:58:13.506Z,3.9
2017-01-15T00:59:24.271Z,3.89
2017-01-15T01:00:34.638Z,3.84
2017-01-15T01:01:44.986Z,3.84
2017-01-15T01:02:55.741Z,3.86
2017-01-15T01:04:06.513Z,3.9
2017-01-15T01:05:16.858Z,3.89
2017-01-15T01:06:27.607Z,3.92
2017-01-15T01:07:38.021Z,3.81
2017-01-15T01:08:48.380Z,3.93
2017-01-15T01:09:58.347Z,3.89
2017-01-15T01:11:09.138Z,3.82
2017-01-15T01:12:19.485Z,3.89
2017-01-15T01:13:30.222Z,3.76
2017-01-15T01:14:40.168Z,3.79
2017-01-15T01:15:50.951Z,3.82
2017-01-15T01:17:01.699Z,3.82
2017-01-15T01:18:12.053Z,3.85
2017-01-15T01:19:22.409Z,3.81
2017-01-15T01:20:33.147Z,3.82
2017-01-15T01:21:43.880Z,3.82
2017-01-15T01:22:54.216Z,3.86
2017-01-15T01:24:03.807Z,3.79
2017-01-15T01:25:14.535Z,3.79
2017-01-15T01:26:24.972Z,3.84
2017-01-15T01:27:35.304Z,3.85
2017-01-15T01:28:44.856Z,3.81
2017-01-15T01:29:55.202Z,3.85
2017-01-15T01:31:05.543Z,3.86
2017-01-15T01:32:15.924Z,3.86
2017-01-15T01:33:25.887Z,3.76
2017-01-15T01:34:36.237Z,3.78
2017-01-15T01:35:46.984Z,3.85
2017-01-15T01:36:57.355Z,3.74
2017-01-15T01:38:07.723Z,3.78
2017-01-15T01:39:18.079Z,3.82
2017-01-15T01:40:28.416Z,3.79
2017-01-15T01:41:38.754Z,3.82
2017-01-15T01:42:48.701Z,3.82
2017-01-15T01:43:59.112Z,3.79
2017-01-15T01:45:09.466Z,3.81
2017-01-15T01:46:19.821Z,3.86
2017-01-15T01:47:30.568Z,3.81
2017-01-15T01:48:40.515Z,3.86
2017-01-15T01:49:51.251Z,3.82
2017-01-15T01:51:02.014Z,3.92
2017-01-15T01:52:12.749Z,3.82
2017-01-15T01:53:23.085Z,3.92
2017-01-15T01:54:33.458Z,3.84
2017-01-15T01:55:43.792Z,3.84
2017-01-15T01:56:54.542Z,3.82
2017-01-15T01:58:04.908Z,3.86
2017-01-15T01:59:15.649Z,3.92
2017-01-15T02:00:25.627Z,3.9
2017-01-15T02:01:35.979Z,3.94
2017-01-15T02:02:46.707Z,3.9
2017-01-15T02:03:57.064Z,3.94
2017-01-15T02:05:07.418Z,3.97
2017-01-15T02:06:18.176Z,3.94
2017-01-15T02:07:28.138Z,3.96
2017-01-15T02:08:38.885Z,3.94
2017-01-15T02:09:48.838Z,3.94
2017-01-15T02:10:58.788Z,3.93
2017-01-15T02:12:09.533Z,4
2017-01-15T02:13:19.875Z,3.99
2017-01-15T02:14:30.612Z,4.03
2017-01-15T02:15:40.970Z,4
2017-01-15T02:16:51.722Z,4.03
2017-01-15T02:18:02.080Z,3.94
2017-01-15T02:19:12.056Z,3.97
2017-01-15T02:20:22.002Z,3.99
2017-01-15T02:21:32.019Z,4.04
2017-01-15T02:22:42.760Z,3.96
2017-01-15T02:23:53.499Z,4
2017-01-15T02:25:03.851Z,3.93
2017-01-15T02:26:13.417Z,3.92
2017-01-15T02:27:24.143Z,3.97
2017-01-15T02:28:34.490Z,3.94
2017-01-15T02:29:45.236Z,3.92
2017-01-15T02:30:55.581Z,3.86
2017-01-15T02:32:05.961Z,3.86
2017-01-15T02:33:16.708Z,3.89
2017-01-15T02:34:26.660Z,3.85
2017-01-15T02:35:37.001Z,3.9
2017-01-15T02:36:47.770Z,3.89
2017-01-15T02:37:58.115Z,3.93
2017-01-15T02:39:08.886Z,3.86
2017-01-15T02:40:19.219Z,3.89
2017-01-15T02:41:29.197Z,3.76
2017-01-15T02:42:39.948Z,3.79
2017-01-15T02:43:50.684Z,3.84
2017-01-15T02:45:01.430Z,3.89
2017-01-15T02:46:11.787Z,3.79
2017-01-15T02:47:22.534Z,3.82
2017-01-15T02:48:33.273Z,3.84
2017-01-15T02:49:42.838Z,3.82
2017-01-15T02:50:53.587Z,3.81
2017-01-15T02:52:04.377Z,3.85
2017-01-15T02:53:14.740Z,3.84
2017-01-15T02:54:25.470Z,3.86
2017-01-15T02:55:36.207Z,3.82
2017-01-15T02:56:46.950Z,3.69
2017-01-15T02:57:56.891Z,3.69
2017-01-15T02:59:07.239Z,3.72
2017-01-15T03:00:17.976Z,3.84
2017-01-15T03:01:28.326Z,3.69
2017-01-15T03:33:22.595Z,0.76
2017-01-15T03:34:32.533Z,0.74
2017-01-15T03:35:42.878Z,0.78
2017-01-15T03:36:53.626Z,0.86
2017-01-15T03:38:03.981Z,0.89
2017-01-15T03:39:14.719Z,1.07
2017-01-15T03:40:25.457Z,1.11
2017-01-15T03:41:36.202Z,1.35
2017-01-15T03:42:46.799Z,1.56
2017-01-15T03:43:57.172Z,1.74
2017-01-15T03:45:07.517Z,1.79
2017-01-15T03:46:17.874Z,1.93
2017-01-15T03:47:28.622Z,2.06
2017-01-15T03:48:38.577Z,2.26
2017-01-15T03:49:48.933Z,2.44
2017-01-15T03:50:59.273Z,2.54
2017-01-15T03:52:09.619Z,2.63
2017-01-15T03:53:20.358Z,2.73
2017-01-15T03:54:31.092Z,2.77
2017-01-15T03:55:41.443Z,2.87
2017-01-15T03:56:52.176Z,3.01
2017-01-15T03:58:02.523Z,3.13
2017-01-15T03:59:13.258Z,3.08
2017-01-15T04:00:24.001Z,3.32
2017-01-15T04:01:33.953Z,3.35
2017-01-15T04:02:44.297Z,3.35
2017-01-15T04:03:54.660Z,3.43
2017-01-15T04:05:05.006Z,3.54
2017-01-15T04:06:15.754Z,3.64
2017-01-15T04:07:25.701Z,3.67
2017-01-15T04:08:36.050Z,3.82
2017-01-15T04:09:46.789Z,3.78
2017-01-15T04:10:57.520Z,4
2017-01-15T04:12:08.271Z,3.92
2017-01-15T04:13:19.023Z,4
2017-01-15T04:14:29.759Z,4.1
2017-01-15T04:15:39.723Z,4.14
2017-01-15T04:16:50.070Z,4.18
2017-01-15T04:18:00.822Z,4.14
2017-01-15T04:19:11.558Z,4.11
2017-01-15T04:20:21.918Z,4.22
2017-01-15T04:21:31.866Z,4.15
2017-01-15T04:22:42.237Z,4.24
2017-01-15T04:23:52.990Z,4.15
2017-01-15T04:25:02.955Z,4.39
2017-01-15T04:26:13.685Z,4.26
2017-01-15T04:27:24.434Z,4.3
2017-01-15T04:28:34.796Z,4.36
2017-01-15T04:29:45.138Z,4.44
2017-01-15T04:30:55.494Z,4.35
2017-01-15T04:32:05.842Z,4.32
2017-01-15T04:33:16.579Z,4.3
2017-01-15T04:34:26.919Z,4.26
2017-01-15T04:35:36.885Z,4.32
2017-01-15T04:36:47.633Z,4.42
2017-01-15T04:37:57.985Z,4.18
2017-01-15T04:39:08.727Z,4.17
2017-01-15T04:40:18.697Z,4.17
2017-01-15T04:41:29.447Z,4.32
2017-01-15T04:42:40.190Z,4.14
2017-01-15T04:43:50.541Z,4.22
2017-01-15T04:45:00.900Z,4.26
2017-01-15T04:46:11.267Z,4.18
2017-01-15T04:47:21.228Z,4.26
2017-01-15T04:48:31.585Z,4.11
2017-01-15T04:49:42.347Z,4.14
2017-01-15T04:50:52.717Z,4.08
2017-01-15T04:52:02.672Z,4.03
2017-01-15T04:53:12.619Z,4
2017-01-15T04:54:23.358Z,3.94
2017-01-15T04:55:33.700Z,3.99
2017-01-15T04:56:44.441Z,4.03
2017-01-15T04:57:55.179Z,4
2017-01-15T04:59:05.519Z,3.97
2017-01-15T05:00:15.458Z,3.94
2017-01-15T05:01:25.793Z,3.94
2017-01-15T05:02:36.522Z,3.79
2017-01-15T05:03:47.273Z,3.92
2017-01-15T05:04:58.023Z,3.9
2017-01-15T05:06:08.770Z,3.84
2017-01-15T05:07:19.126Z,3.81
2017-01-15T05:08:29.057Z,3.81
2017-01-15T05:09:39.011Z,3.82
2017-01-15T05:10:49.357Z,3.78
2017-01-15T05:11:59.722Z,3.82
2017-01-15T05:13:09.691Z,3.84
2017-01-15T05:14:20.039Z,3.78
2017-01-15T05:15:30.393Z,3.76
2017-01-15T05:16:40.345Z,3.79
2017-01-15T05:17:51.077Z,3.72
2017-01-15T05:19:01.814Z,3.69
2017-01-15T05:20:11.806Z,3.71
2017-01-15T05:21:22.543Z,3.74
2017-01-15T05:22:33.282Z,3.64
2017-01-15T05:23:43.645Z,3.61
2017-01-15T05:24:53.586Z,3.75
2017-01-15T05:26:03.174Z,3.71
2017-01-15T05:27:13.914Z,3.71
2017-01-15T05:28:24.280Z,3.72
2017-01-15T05:29:35.021Z,3.71
2017-01-15T05:30:45.365Z,3.74
2017-01-15T05:31:55.321Z,3.72
2017-01-15T05:33:05.668Z,3.66
2017-01-15T05:34:16.032Z,3.74
2017-01-15T05:35:26.801Z,3.71
2017-01-15T05:36:36.759Z,3.64
2017-01-15T05:37:47.499Z,3.63
2017-01-15T05:38:58.243Z,3.72
2017-01-15T05:40:08.989Z,3.66
2017-01-15T05:41:19.740Z,3.69
2017-01-15T05:42:30.476Z,3.69
2017-01-15T05:43:41.217Z,3.71
2017-01-15T05:44:50.759Z,3.72
2017-01-15T05:46:01.106Z,3.69
2017-01-15T05:47:11.454Z,3.66
2017-01-15T05:48:22.229Z,3.74
2017-01-15T05:49:32.967Z,3.74
2017-01-15T05:50:42.907Z,3.69
2017-01-15T05:51:53.244Z,3.72
2017-01-15T05:53:03.591Z,3.67
2017-01-15T05:54:13.554Z,3.71
2017-01-15T05:55:23.929Z,3.71
2017-01-15T05:56:34.671Z,3.75
2017-01-15T05:57:45.013Z,3.79
2017-01-15T05:58:55.360Z,3.78
2017-01-15T06:00:06.096Z,3.81
2017-01-15T06:01:16.452Z,3.81
2017-01-15T06:02:27.194Z,3.79
2017-01-15T06:03:37.157Z,3.84
2017-01-15T06:04:47.893Z,3.81
2017-01-15T06:05:57.841Z,3.85
2017-01-15T06:07:08.581Z,3.78
2017-01-15T06:08:18.934Z,3.89
2017-01-15T06:09:29.669Z,3.85
2017-01-15T06:10:40.396Z,3.84
2017-01-15T06:11:50.739Z,3.89
2017-01-15T06:13:01.480Z,3.85
2017-01-15T06:14:11.833Z,3.81
2017-01-15T06:15:22.187Z,3.81
2017-01-15T06:16:32.931Z,3.78
2017-01-15T06:17:43.291Z,3.84
2017-01-15T06:18:53.238Z,3.79
2017-01-15T06:20:03.986Z,3.85
2017-01-15T06:21:14.723Z,3.84
2017-01-15T06:22:25.068Z,3.84
2017-01-15T06:23:35.800Z,3.92
2017-01-15T06:24:46.146Z,3.84
2017-01-15T06:25:56.900Z,3.86
2017-01-15T06:27:07.266Z,3.84
2017-01-15T06:28:18.021Z,3.85
2017-01-15T06:29:28.768Z,3.79
2017-01-15T06:30:39.535Z,3.79
2017-01-15T06:31:50.273Z,3.85
2017-01-15T06:33:01.019Z,3.82
2017-01-15T06:34:11.367Z,3.92
2017-01-15T06:35:21.712Z,3.92
2017-01-15T06:36:32.457Z,3.82
2017-01-15T06:37:43.196Z,3.9
2017-01-15T06:38:53.556Z,3.81
2017-01-15T06:40:04.310Z,3.81
2017-01-15T06:41:14.651Z,3.82
2017-01-15T06:42:24.594Z,3.84
2017-01-15T06:43:34.949Z,3.81
2017-01-15T06:44:45.698Z,3.79
2017-01-15T06:45:55.654Z,3.76
2017-01-15T06:47:06.425Z,3.85
2017-01-15T06:48:17.168Z,3.82
2017-01-15T06:49:27.893Z,3.9
2017-01-15T06:50:37.842Z,3.85
2017-01-15T06:51:48.188Z,3.79
2017-01-15T06:52:58.921Z,3.85
2017-01-15T06:54:09.295Z,3.85
2017-01-15T06:55:19.658Z,3.92
2017-01-15T06:56:30.013Z,3.84
2017-01-15T06:57:40.759Z,3.92
2017-01-15T06:58:51.107Z,3.93
2017-01-15T07:00:01.469Z,3.97
2017-01-15T07:01:11.821Z,4
2017-01-15T07:02:22.553Z,3.96
2017-01-15T07:03:33.285Z,4
2017-01-15T07:04:44.026Z,4.1
2017-01-15T07:05:53.998Z,4.11
2017-01-15T07:07:04.960Z,4.11
2017-01-15T07:08:15.699Z,4.07
2017-01-15T07:09:26.468Z,4.11
2017-01-15T07:10:36.824Z,4.15
2017-01-15T07:11:46.781Z,4.14
2017-01-15T07:12:57.514Z,4.17
2017-01-15T07:14:07.879Z,4.33
2017-01-15T07:15:18.628Z,4.33
2017-01-15T07:16:29.375Z,4.47
2017-01-15T07:17:39.755Z,4.48
2017-01-15T07:18:50.508Z,4.65
2017-01-15T07:20:01.253Z,4.61
2017-01-15T07:21:11.995Z,4.66
2017-01-15T07:22:21.941Z,4.78
2017-01-15T07:23:32.283Z,4.88
2017-01-15T07:24:43.025Z,4.83
2017-01-15T07:25:53.370Z,4.84
2017-01-15T07:27:04.128Z,4.83
2017-01-15T07:28:14.871Z,4.76
2017-01-15T07:29:25.218Z,4.71
2017-01-15T07:30:35.572Z,4.75
2017-01-15T07:31:46.333Z,4.83
2017-01-15T07:32:56.683Z,4.79
2017-01-15T07:34:07.046Z,4.79
2017-01-15T07:35:17.789Z,4.79
2017-01-15T07:36:28.538Z,4.79
2017-01-15T07:37:39.284Z,4.85
2017-01-15T07:38:49.629Z,4.85
2017-01-15T07:40:00.363Z,5.02
2017-01-15T07:41:10.726Z,4.97
2017-01-15T07:42:20.672Z,5.1
2017-01-15T07:43:31.428Z,5.13
2017-01-15T07:44:42.166Z,5.2
2017-01-15T07:45:52.516Z,5.3
2017-01-15T07:47:02.888Z,5.34
2017-01-15T07:48:12.848Z,5.36
2017-01-15T07:49:23.216Z,5.24
2017-01-15T07:50:32.781Z,5.3
2017-01-15T07:51:43.527Z,5.39
2017-01-15T07:52:53.490Z,5.42
2017-01-15T07:54:03.449Z,5.44
2017-01-15T07:55:13.401Z,5.49
2017-01-15T07:56:24.153Z,5.46
2017-01-15T07:57:34.498Z,5.52
2017-01-15T07:58:45.270Z,5.54
2017-01-15T07:59:55.623Z,5.6
2017-01-15T08:01:05.192Z,5.54
2017-01-15T08:02:15.542Z,5.69
2017-01-15T08:03:26.290Z,5.64
2017-01-15T08:04:35.864Z,5.66
2017-01-15T08:05:46.620Z,5.62
2017-01-15T08:06:57.006Z,5.54
2017-01-15T08:08:07.763Z,5.67
2017-01-15T08:09:18.515Z,5.6
2017-01-15T08:10:28.865Z,5.7
2017-01-15T08:11:39.602Z,5.72
2017-01-15T08:12:49.950Z,5.66
2017-01-15T08:14:00.695Z,5.57
2017-01-15T08:15:11.489Z,5.62
2017-01-15T08:16:21.849Z,5.64
2017-01-15T08:17:32.606Z,5.81
2017-01-15T08:18:43.359Z,6.06
2017-01-15T08:19:54.109Z,6.1
2017-01-15T08:21:04.066Z,6.33
2017-01-15T08:22:14.402Z,6.31
2017-01-15T08:23:25.175Z,6.42
2017-01-15T08:24:35.536Z,6.47
2017-01-15T08:25:46.277Z,6.64
2017-01-15T08:26:56.633Z,6.65
2017-01-15T08:28:06.606Z,6.83
2017-01-15T08:29:16.961Z,6.9
2017-01-15T08:30:27.301Z,7.01
2017-01-15T08:31:37.676Z,7.09
2017-01-15T08:32:48.031Z,6.93
2017-01-15T08:33:58.408Z,6.91
2017-01-15T08:35:08.771Z,6.82
2017-01-15T08:36:19.526Z,6.83
2017-01-15T08:37:30.318Z,6.93
2017-01-15T08:38:41.095Z,7.11
2017-01-15T08:39:51.872Z,7.31
2017-01-15T08:41:02.224Z,7.54
2017-01-15T08:42:12.965Z,7.71
2017-01-15T08:43:23.741Z,7.71
2017-01-15T08:44:34.093Z,7.75
2017-01-15T08:45:44.060Z,7.89
2017-01-15T08:46:54.443Z,7.96
2017-01-15T08:48:04.788Z,7.71
2017-01-15T08:49:15.539Z,7.61
2017-01-15T08:50:26.312Z,7.58
2017-01-15T08:51:36.664Z,7.48
2017-01-15T08:52:47.403Z,7.23
2017-01-15T08:53:57.002Z,7.26
2017-01-15T08:55:07.778Z,7.21
2017-01-15T08:56:18.546Z,7.13
2017-01-15T08:57:29.284Z,7
2017-01-15T08:58:39.644Z,7.04
2017-01-15T08:59:50.410Z,6.93
2017-01-15T09:01:01.157Z,6.97
2017-01-15T09:02:11.929Z,6.85
2017-01-15T09:03:21.899Z,6.98
2017-01-15T09:04:32.246Z,7.03
2017-01-15T09:05:42.606Z,7.19
2017-01-15T09:06:52.981Z,7.11
2017-01-15T09:08:03.745Z,7.08
2017-01-15T09:09:14.484Z,7.16
2017-01-15T09:10:25.242Z,7.22
2017-01-15T09:11:36.047Z,7.22
2017-01-15T09:12:46.804Z,7.4
2017-01-15T09:13:56.361Z,7.37
2017-01-15T09:15:06.699Z,7.55
2017-01-15T09:16:17.454Z,7.71
2017-01-15T09:17:27.796Z,7.83
2017-01-15T09:18:37.780Z,8.01
2017-01-15T09:19:48.531Z,8.14
2017-01-15T09:20:58.096Z,8.69
2017-01-15T09:22:08.833Z,8.64
2017-01-15T09:23:19.634Z,8.79
2017-01-15T09:24:30.389Z,8.77
2017-01-15T09:25:40.790Z,8.74
2017-01-15T09:26:51.539Z,9.09
2017-01-15T09:28:02.303Z,9.2
2017-01-15T09:29:13.070Z,9.3
2017-01-15T09:30:23.421Z,9.56
2017-01-15T09:31:34.159Z,9.5
2017-01-15T09:32:44.524Z,9.35
2017-01-15T09:33:54.493Z,9.24
2017-01-15T09:35:04.880Z,9.23
2017-01-15T09:36:14.835Z,9.19
2017-01-15T09:37:24.802Z,9.2
2017-01-15T09:38:35.798Z,9.29
2017-01-15T09:39:46.554Z,9.64
2017-01-15T09:40:56.901Z,9.74
2017-01-15T09:42:07.664Z,9.7
2017-01-15T09:43:17.257Z,10.08
2017-01-15T09:44:28.007Z,9.81
2017-01-15T09:45:38.360Z,9.55
2017-01-15T09:46:49.171Z,9.38
2017-01-15T09:47:59.913Z,9.24
2017-01-15T09:49:10.281Z,9.23
2017-01-15T09:50:20.637Z,9.2
2017-01-15T09:51:31.033Z,9.19
2017-01-15T09:52:41.798Z,9.16
2017-01-15T09:53:52.546Z,9.12
2017-01-15T09:55:03.308Z,9.01
2017-01-15T09:56:13.705Z,9.11
2017-01-15T09:57:24.473Z,9.24
2017-01-15T09:58:34.821Z,9.29
2017-01-15T09:59:45.577Z,9.23
2017-01-15T10:00:56.328Z,9.03
2017-01-15T10:02:06.674Z,8.86
2017-01-15T10:03:17.035Z,8.72
2017-01-15T10:04:27.404Z,8.72
2017-01-15T10:05:37.379Z,8.6
2017-01-15T10:06:47.741Z,8.64
2017-01-15T10:07:58.487Z,8.64
2017-01-15T10:09:08.466Z,8.67
2017-01-15T10:10:18.841Z,8.67
2017-01-15T10:11:29.226Z,8.71
2017-01-15T10:12:39.182Z,8.64
2017-01-15T10:13:49.533Z,8.65
2017-01-15T10:15:00.531Z,8.69
2017-01-15T10:16:11.285Z,8.65
2017-01-15T10:17:22.041Z,8.57
2017-01-15T10:18:32.798Z,8.44
2017-01-15T10:19:43.559Z,8.47
2017-01-15T10:20:54.342Z,8.52
2017-01-15T10:22:05.102Z,8.46
2017-01-15T10:23:15.856Z,8.49
2017-01-15T10:24:26.226Z,8.36
2017-01-15T10:25:36.585Z,8.39
2017-01-15T10:26:47.352Z,8.32
2017-01-15T10:27:57.713Z,8.25
2017-01-15T10:29:08.463Z,8.31
2017-01-15T10:30:19.236Z,8.24
2017-01-15T10:31:29.988Z,8.25
2017-01-15T10:32:40.357Z,8.46
2017-01-15T10:33:50.749Z,8.5
2017-01-15T10:35:01.503Z,8.46
2017-01-15T10:36:11.467Z,8.52
2017-01-15T10:37:21.437Z,8.62
2017-01-15T10:38:32.206Z,8.68
2017-01-15T10:39:42.161Z,8.77
2017-01-15T10:40:52.116Z,8.85
2017-01-15T10:42:02.484Z,8.89
2017-01-15T10:43:12.846Z,8.89
2017-01-15T10:44:23.214Z,8.89
2017-01-15T10:45:32.799Z,8.98
2017-01-15T10:46:43.568Z,9.08
2017-01-15T10:47:54.323Z,9.04
2017-01-15T10:49:04.688Z,9.08
2017-01-15T10:50:15.446Z,8.97
2017-01-15T10:51:26.199Z,8.9
2017-01-15T10:52:36.176Z,8.74
2017-01-15T10:53:46.929Z,8.68
2017-01-15T10:54:57.288Z,8.69
2017-01-15T10:56:08.043Z,8.64
2017-01-15T10:57:17.223Z,8.68
2017-01-15T10:58:27.979Z,8.77
2017-01-15T10:59:38.335Z,8.82
2017-01-15T11:00:49.102Z,8.71
2017-01-15T11:01:59.485Z,8.72
2017-01-15T11:03:10.258Z,8.68
2017-01-15T11:04:21.032Z,8.69
2017-01-15T11:05:31.417Z,8.61
2017-01-15T11:06:41.771Z,8.54
2017-01-15T11:07:52.543Z,8.46
2017-01-15T11:09:03.328Z,8.43
2017-01-15T11:10:14.112Z,8.34
2017-01-15T11:11:24.090Z,8.31
2017-01-15T11:12:34.454Z,8.4
2017-01-15T11:13:44.837Z,8.44
2017-01-15T11:14:55.589Z,8.57
2017-01-15T11:16:04.761Z,8.32
2017-01-15T11:17:15.133Z,8.24
2017-01-15T11:18:25.895Z,8.14
2017-01-15T11:19:35.870Z,8.09
2017-01-15T11:20:46.256Z,7.96
2017-01-15T11:21:56.633Z,8.04
2017-01-15T11:23:06.640Z,8.24
2017-01-15T11:24:16.594Z,8.58
2017-01-15T11:25:27.363Z,8.8
2017-01-15T11:26:38.131Z,9.01
2017-01-15T11:27:48.919Z,8.79
2017-01-15T11:28:59.683Z,8.71
2017-01-15T11:30:10.062Z,8.87
2017-01-15T11:31:20.434Z,9.38
2017-01-15T11:32:30.000Z,9.47
2017-01-15T11:33:40.761Z,9.24
2017-01-15T11:34:51.540Z,9.05
2017-01-15T11:36:01.903Z,8.92
2017-01-15T11:37:12.257Z,8.87
2017-01-15T11:38:23.002Z,8.83
2017-01-15T11:39:33.370Z,8.74
2017-01-15T11:40:43.746Z,8.8
2017-01-15T11:41:54.123Z,8.9
2017-01-15T11:43:04.490Z,8.95
2017-01-15T11:44:14.851Z,9.04
2017-01-15T11:45:25.216Z,9.16
2017-01-15T11:46:35.975Z,9.19
2017-01-15T11:47:46.760Z,9.2
2017-01-15T11:48:57.523Z,9.17
2017-01-15T11:50:07.487Z,9.16
2017-01-15T11:51:18.252Z,9
2017-01-15T11:52:29.032Z,8.97
2017-01-15T11:53:39.411Z,8.72
2017-01-15T11:54:49.770Z,8.68
2017-01-15T11:56:00.521Z,8.58
2017-01-15T11:57:10.524Z,8.62
2017-01-15T11:58:21.269Z,8.72
2017-01-15T11:59:31.632Z,8.87
2017-01-15T12:00:42.013Z,9.29
2017-01-15T12:01:52.773Z,9.55
2017-01-15T12:03:03.552Z,9.38
2017-01-15T12:04:14.320Z,9.27
2017-01-15T12:05:25.083Z,9.12
2017-01-15T12:06:35.478Z,8.76
2017-01-15T12:07:46.254Z,8.6
2017-01-15T12:08:56.223Z,8.61
2017-01-15T12:10:06.990Z,8.76
2017-01-15T12:11:17.739Z,8.69
2017-01-15T12:12:28.495Z,8.6
2017-01-15T12:13:39.259Z,8.52
2017-01-15T12:14:49.998Z,8.34
2017-01-15T12:16:00.813Z,8.14
2017-01-15T12:17:11.178Z,8.1
2017-01-15T12:18:21.541Z,8.1
2017-01-15T12:19:32.276Z,8.01
2017-01-15T12:20:43.021Z,8.06
2017-01-15T12:21:53.377Z,8.1
2017-01-15T12:23:04.142Z,8.13
2017-01-15T12:24:14.923Z,8.11
2017-01-15T12:25:25.707Z,8.14
2017-01-15T12:26:36.469Z,8.19
2017-01-15T12:27:46.435Z,8.22
2017-01-15T12:28:56.797Z,8.21
2017-01-15T12:30:07.177Z,8.16
2017-01-15T12:31:17.790Z,8.11
2017-01-15T12:32:28.180Z,8.06
2017-01-15T12:33:38.540Z,8.01
2017-01-15T12:34:48.511Z,8.06
2017-01-15T12:35:58.907Z,8.06
2017-01-15T12:37:09.675Z,8.07
2017-01-15T12:38:20.461Z,8.1
2017-01-15T12:39:31.289Z,8.39
2017-01-15T12:40:42.069Z,8.43
2017-01-15T12:41:52.486Z,8.4
2017-01-15T12:43:02.894Z,8.31
2017-01-15T12:44:13.272Z,8.17
2017-01-15T12:45:24.032Z,8.21
2017-01-15T12:46:34.788Z,8.21
2017-01-15T12:47:45.169Z,8.04
2017-01-15T12:48:55.962Z,7.89
2017-01-15T12:50:05.953Z,7.89
2017-01-15T12:51:16.722Z,7.89
2017-01-15T12:52:27.077Z,7.8
2017-01-15T12:53:37.453Z,7.77
2017-01-15T12:54:48.218Z,7.7
2017-01-15T12:55:58.220Z,7.7
2017-01-15T12:57:08.562Z,7.59
2017-01-15T12:58:18.933Z,7.64
2017-01-15T12:59:29.680Z,7.56
2017-01-15T13:00:40.029Z,7.52
2017-01-15T13:01:50.790Z,7.67
2017-01-15T13:03:01.141Z,7.86
2017-01-15T13:04:11.513Z,7.86
2017-01-15T13:05:22.305Z,8.1
2017-01-15T13:06:33.059Z,8.68
2017-01-15T13:07:43.028Z,8.95
2017-01-15T13:08:52.991Z,9.05
2017-01-15T13:10:03.357Z,9.09
2017-01-15T13:11:14.102Z,8.94
2017-01-15T13:12:24.458Z,9.14
2017-01-15T13:13:34.852Z,9.11
2017-01-15T13:14:44.422Z,8.69
2017-01-15T13:15:54.813Z,8.8
2017-01-15T13:17:04.787Z,9
2017-01-15T13:18:15.531Z,9.09
2017-01-15T13:19:26.298Z,9.17
2017-01-15T13:20:35.880Z,9.17
2017-01-15T13:21:46.666Z,9.05
2017-01-15T13:22:56.642Z,9.23
2017-01-15T13:24:07.409Z,9.16
2017-01-15T13:25:18.184Z,9.16
2017-01-15T13:26:28.549Z,9.14
2017-01-15T13:27:38.967Z,9.11
2017-01-15T13:28:49.742Z,9.12
2017-01-15T13:29:59.735Z,9.12
2017-01-15T13:31:10.104Z,9.04
2017-01-15T13:32:20.875Z,8.71
2017-01-15T13:33:31.676Z,8.49
2017-01-15T13:34:42.043Z,8.44
2017-01-15T13:35:52.401Z,8.49
2017-01-15T13:37:03.146Z,8.21
2017-01-15T13:38:13.935Z,7.96
2017-01-15T13:39:23.913Z,7.8
2017-01-15T13:40:34.285Z,7.56
2017-01-15T13:41:45.058Z,7.58
2017-01-15T13:42:55.834Z,7.39
2017-01-15T13:44:06.210Z,7.27
2017-01-15T13:45:16.969Z,7.21
2017-01-15T13:46:27.736Z,7.09
2017-01-15T13:47:38.142Z,7.08
2017-01-15T13:48:48.509Z,7.29
2017-01-15T13:49:58.881Z,7.44
2017-01-15T13:51:09.682Z,7.55
2017-01-15T13:52:19.658Z,7.74
2017-01-15T13:53:30.020Z,7.8
2017-01-15T13:54:40.401Z,7.85
2017-01-15T13:55:51.171Z,7.96
2017-01-15T13:57:01.558Z,8.01
2017-01-15T13:58:12.331Z,8.07
2017-01-15T13:59:22.694Z,8.07
2017-01-15T14:00:32.677Z,8.03
2017-01-15T14:01:43.435Z,8.07
2017-01-15T14:02:54.207Z,8.13
2017-01-15T14:04:04.585Z,8.11
2017-01-15T14:05:15.359Z,8.16
2017-01-15T14:06:26.128Z,8.13
2017-01-15T14:07:36.346Z,8.21
2017-01-15T14:08:46.710Z,8.04
2017-01-15T14:09:57.484Z,8.09
2017-01-15T14:11:08.253Z,8.04
2017-01-15T14:12:19.008Z,8.01
2017-01-15T14:13:29.382Z,8.06
2017-01-15T14:14:40.193Z,7.89
2017-01-15T14:15:50.971Z,7.86
2017-01-15T14:17:01.723Z,7.82
2017-01-15T14:18:12.100Z,7.78
2017-01-15T14:19:22.881Z,7.86
2017-01-15T14:20:33.667Z,7.71
2017-01-15T14:21:44.437Z,7.34
2017-01-15T14:22:54.396Z,7.26
2017-01-15T14:24:04.763Z,7.22
2017-01-15T14:25:15.177Z,7.29
2017-01-15T14:26:25.935Z,7.19
2017-01-15T14:27:35.885Z,7.18
2017-01-15T14:28:46.640Z,7.22
2017-01-15T14:29:57.422Z,7.16
2017-01-15T14:31:07.795Z,7.26
2017-01-15T14:32:18.569Z,7.21
2017-01-15T14:33:28.955Z,7.19
2017-01-15T14:34:39.724Z,7.09
2017-01-15T14:35:50.479Z,6.95
2017-01-15T14:37:00.478Z,6.98
2017-01-15T14:38:11.287Z,6.97
2017-01-15T14:39:22.058Z,7.01
2017-01-15T14:40:32.437Z,6.85
2017-01-15T14:41:43.192Z,6.8
2017-01-15T14:42:53.572Z,6.75
2017-01-15T14:44:04.344Z,6.73
2017-01-15T14:45:14.728Z,6.57
2017-01-15T14:46:25.122Z,6.51
2017-01-15T14:47:35.093Z,6.46
2017-01-15T14:48:45.863Z,6.37
2017-01-15T14:49:56.260Z,6.34
2017-01-15T14:51:07.024Z,6.26
2017-01-15T14:52:17.764Z,6.25
2017-01-15T14:53:28.511Z,6.06
2017-01-15T14:54:38.868Z,6.02
2017-01-15T14:55:49.623Z,5.98
2017-01-15T14:57:00.386Z,5.88
2017-01-15T14:58:11.134Z,5.81
2017-01-15T14:59:21.498Z,5.82
2017-01-15T15:00:31.856Z,5.78
2017-01-15T15:01:42.222Z,5.8
2017-01-15T15:02:52.605Z,5.77
2017-01-15T15:04:03.367Z,5.69
2017-01-15T15:05:14.122Z,5.52
2017-01-15T15:06:24.479Z,5.62
2017-01-15T15:07:35.232Z,5.48
2017-01-15T15:08:45.573Z,5.51
2017-01-15T15:09:55.154Z,5.45
2017-01-15T15:11:05.922Z,5.41
2017-01-15T15:12:15.893Z,5.39
2017-01-15T15:13:26.250Z,5.34
2017-01-15T15:14:36.633Z,5.36
2017-01-15T15:15:46.994Z,5.28
2017-01-15T15:16:57.771Z,5.28
2017-01-15T15:18:08.138Z,5.27
2017-01-15T15:19:18.936Z,5.21
2017-01-15T15:20:29.278Z,5.15
2017-01-15T15:21:39.237Z,5.18
2017-01-15T15:22:49.592Z,5.2
2017-01-15T15:23:59.941Z,5.15
2017-01-15T15:25:09.922Z,5.02
2017-01-15T15:26:20.661Z,5
2017-01-15T15:27:31.030Z,5.02
2017-01-15T15:28:41.817Z,4.94
2017-01-15T15:29:52.561Z,4.97
2017-01-15T15:31:02.943Z,4.95
2017-01-15T15:32:13.683Z,4.84
2017-01-15T15:33:24.080Z,4.88
2017-01-15T15:34:34.052Z,4.84
2017-01-15T15:35:44.848Z,4.85
2017-01-15T15:36:55.584Z,4.75
2017-01-15T15:38:06.364Z,4.76
2017-01-15T15:39:16.720Z,4.71
2017-01-15T15:40:27.075Z,4.74
2017-01-15T15:41:37.054Z,4.64
2017-01-15T15:42:47.823Z,4.58
2017-01-15T15:43:58.578Z,4.66
2017-01-15T15:45:09.329Z,4.68
2017-01-15T15:46:20.089Z,4.58
2017-01-15T15:47:30.883Z,4.64
2017-01-15T15:48:41.233Z,4.51
2017-01-15T15:49:51.578Z,4.51
2017-01-15T15:51:01.543Z,4.5
2017-01-15T15:52:12.303Z,4.54
2017-01-15T15:53:22.648Z,4.48
2017-01-15T15:54:33.028Z,4.33
2017-01-15T15:55:43.372Z,4.33
2017-01-15T15:56:54.144Z,4.4
2017-01-15T15:58:04.509Z,4.38
2017-01-15T15:59:14.947Z,4.42
2017-01-15T16:00:25.354Z,4.36
2017-01-15T16:01:36.126Z,4.36
2017-01-15T16:02:46.512Z,4.32
2017-01-15T16:03:56.482Z,4.28
2017-01-15T16:05:07.262Z,4.32
2017-01-15T16:06:18.028Z,4.14
2017-01-15T16:07:28.780Z,4.26
2017-01-15T16:08:39.565Z,4.3
2017-01-15T16:09:50.332Z,4.32
2017-01-15T16:11:01.097Z,4.24
2017-01-15T16:12:11.070Z,4.28